sensor_id;sensor_type;location;lat;lon;timestamp;temperature;humidity
18297;DHT22;18066;52.106;5.534;2023-03-26T00:01:21;8.40;99.90
18297;DHT22;18066;52.106;5.534;2023-03-26T00:03:49;8.50;99.90
18297;DHT22;18066;52.106;5.534;2023-03-26T00:06:20;8.50;99.90
18297;DHT22;18066;52.106;5.534;2023-03-26T00:08:48;8.50;99.90
18297;DHT22;18066;52.106;5.534;2023-03-26T00:11:17;8.50;99.90
18297;DHT22;18066;52.106;5.534;2023-03-26T00:13:44;8.40;99.90
18297;DHT22;18066;52.106;5.534;2023-03-26T00:16:15;8.40;99.90
18297;DHT22;18066;52.106;5.534;2023-03-26T00:18:42;8.40;99.90
18297;DHT22;18066;52.106;5.534;2023-03-26T00:21:12;8.40;99.90
18297;DHT22;18066;52.106;5.534;2023-03-26T00:23:39;8.40;99.90
18297;DHT22;18066;52.106;5.534;2023-03-26T00:26:06;8.50;99.90
18297;DHT22;18066;52.106;5.534;2023-03-26T00:28:35;8.40;99.90
18297;DHT22;18066;52.106;5.534;2023-03-26T00:31:04;8.40;99.90
18297;DHT22;18066;52.106;5.534;2023-03-26T00:33:33;8.40;99.90
18297;DHT22;18066;52.106;5.534;2023-03-26T00:36:05;8.50;99.90
18297;DHT22;18066;52.106;5.534;2023-03-26T00:38:34;8.40;99.90
18297;DHT22;18066;52.106;5.534;2023-03-26T00:41:05;8.40;99.90
18297;DHT22;18066;52.106;5.534;2023-03-26T00:43:34;8.40;99.90
18297;DHT22;18066;52.106;5.534;2023-03-26T00:46:02;8.40;99.90
18297;DHT22;18066;52.106;5.534;2023-03-26T00:48:29;8.40;99.90
18297;DHT22;18066;52.106;5.534;2023-03-26T00:50:57;8.50;99.90
18297;DHT22;18066;52.106;5.534;2023-03-26T00:53:24;8.70;99.90
18297;DHT22;18066;52.106;5.534;2023-03-26T00:55:51;8.60;99.90
18297;DHT22;18066;52.106;5.534;2023-03-26T00:58:18;8.60;99.90
18297;DHT22;18066;52.106;5.534;2023-03-26T01:00:50;8.80;99.90
18297;DHT22;18066;52.106;5.534;2023-03-26T01:03:18;8.70;99.90
18297;DHT22;18066;52.106;5.534;2023-03-26T01:05:48;8.70;99.90
18297;DHT22;18066;52.106;5.534;2023-03-26T01:08:30;8.70;99.90
18297;DHT22;18066;52.106;5.534;2023-03-26T01:11:00;8.70;99.90
18297;DHT22;18066;52.106;5.534;2023-03-26T01:13:35;8.70;99.90
18297;DHT22;18066;52.106;5.534;2023-03-26T01:16:05;8.70;99.90
18297;DHT22;18066;52.106;5.534;2023-03-26T01:18:36;8.70;99.90
18297;DHT22;18066;52.106;5.534;2023-03-26T01:21:06;8.70;99.90
18297;DHT22;18066;52.106;5.534;2023-03-26T01:23:43;8.70;99.90
18297;DHT22;18066;52.106;5.534;2023-03-26T01:29:11;8.90;99.90
18297;DHT22;18066;52.106;5.534;2023-03-26T01:31:48;8.90;99.90
18297;DHT22;18066;52.106;5.534;2023-03-26T01:34:22;9.00;99.90
18297;DHT22;18066;52.106;5.534;2023-03-26T01:36:58;9.00;99.90
18297;DHT22;18066;52.106;5.534;2023-03-26T01:39:32;9.00;99.90
18297;DHT22;18066;52.106;5.534;2023-03-26T01:42:07;9.00;99.90
18297;DHT22;18066;52.106;5.534;2023-03-26T01:44:42;8.90;99.90
18297;DHT22;18066;52.106;5.534;2023-03-26T01:47:12;9.00;99.90
18297;DHT22;18066;52.106;5.534;2023-03-26T01:49:39;8.90;99.90
18297;DHT22;18066;52.106;5.534;2023-03-26T01:52:11;9.10;99.90
18297;DHT22;18066;52.106;5.534;2023-03-26T01:54:38;9.00;99.90
18297;DHT22;18066;52.106;5.534;2023-03-26T01:57:13;9.00;99.90
18297;DHT22;18066;52.106;5.534;2023-03-26T02:00:02;9.00;99.90
18297;DHT22;18066;52.106;5.534;2023-03-26T02:02:40;9.00;99.90
18297;DHT22;18066;52.106;5.534;2023-03-26T02:05:14;9.10;99.90
18297;DHT22;18066;52.106;5.534;2023-03-26T02:07:45;9.00;99.90
18297;DHT22;18066;52.106;5.534;2023-03-26T02:10:19;8.90;99.90
18297;DHT22;18066;52.106;5.534;2023-03-26T02:12:50;9.00;99.90
18297;DHT22;18066;52.106;5.534;2023-03-26T02:15:17;9.00;99.90
18297;DHT22;18066;52.106;5.534;2023-03-26T02:17:44;9.00;99.90
18297;DHT22;18066;52.106;5.534;2023-03-26T02:20:13;9.00;99.90
18297;DHT22;18066;52.106;5.534;2023-03-26T02:22:40;8.80;99.90
18297;DHT22;18066;52.106;5.534;2023-03-26T02:25:11;9.00;99.90
18297;DHT22;18066;52.106;5.534;2023-03-26T02:27:40;9.00;99.90
18297;DHT22;18066;52.106;5.534;2023-03-26T02:30:13;9.10;99.90
18297;DHT22;18066;52.106;5.534;2023-03-26T02:32:41;9.00;99.90
18297;DHT22;18066;52.106;5.534;2023-03-26T02:35:10;9.00;99.90
18297;DHT22;18066;52.106;5.534;2023-03-26T02:37:37;9.00;99.90
18297;DHT22;18066;52.106;5.534;2023-03-26T02:40:05;9.00;99.90
18297;DHT22;18066;52.106;5.534;2023-03-26T02:42:36;9.10;99.90
18297;DHT22;18066;52.106;5.534;2023-03-26T02:45:04;9.20;99.90
18297;DHT22;18066;52.106;5.534;2023-03-26T02:47:33;9.20;99.90
18297;DHT22;18066;52.106;5.534;2023-03-26T02:50:00;9.20;99.90
18297;DHT22;18066;52.106;5.534;2023-03-26T02:52:28;9.30;99.90
18297;DHT22;18066;52.106;5.534;2023-03-26T02:54:55;9.30;99.90
18297;DHT22;18066;52.106;5.534;2023-03-26T02:57:22;9.30;99.90
18297;DHT22;18066;52.106;5.534;2023-03-26T02:59:49;9.30;99.90
18297;DHT22;18066;52.106;5.534;2023-03-26T03:02:17;9.30;99.90
18297;DHT22;18066;52.106;5.534;2023-03-26T03:04:45;9.20;99.90
18297;DHT22;18066;52.106;5.534;2023-03-26T03:07:12;9.20;99.90
18297;DHT22;18066;52.106;5.534;2023-03-26T03:09:40;9.20;99.90
18297;DHT22;18066;52.106;5.534;2023-03-26T03:12:07;9.10;99.90
18297;DHT22;18066;52.106;5.534;2023-03-26T03:14:34;9.10;99.90
18297;DHT22;18066;52.106;5.534;2023-03-26T03:17:02;9.30;99.90
18297;DHT22;18066;52.106;5.534;2023-03-26T03:19:29;9.10;99.90
18297;DHT22;18066;52.106;5.534;2023-03-26T03:21:57;9.10;99.90
18297;DHT22;18066;52.106;5.534;2023-03-26T03:24:24;9.00;99.90
18297;DHT22;18066;52.106;5.534;2023-03-26T03:26:51;9.00;99.90
18297;DHT22;18066;52.106;5.534;2023-03-26T03:29:21;9.10;99.90
18297;DHT22;18066;52.106;5.534;2023-03-26T03:31:48;9.00;99.90
18297;DHT22;18066;52.106;5.534;2023-03-26T03:34:15;9.00;99.90
18297;DHT22;18066;52.106;5.534;2023-03-26T03:36:41;9.10;99.90
18297;DHT22;18066;52.106;5.534;2023-03-26T03:39:14;9.20;99.90
18297;DHT22;18066;52.106;5.534;2023-03-26T03:41:41;9.10;99.90
18297;DHT22;18066;52.106;5.534;2023-03-26T03:44:08;9.00;99.90
18297;DHT22;18066;52.106;5.534;2023-03-26T03:46:35;9.00;99.90
18297;DHT22;18066;52.106;5.534;2023-03-26T03:49:02;9.00;99.90
18297;DHT22;18066;52.106;5.534;2023-03-26T03:51:29;9.10;99.90
18297;DHT22;18066;52.106;5.534;2023-03-26T03:53:55;9.10;99.90
18297;DHT22;18066;52.106;5.534;2023-03-26T03:56:23;9.00;99.90
18297;DHT22;18066;52.106;5.534;2023-03-26T03:58:50;9.00;99.90
18297;DHT22;18066;52.106;5.534;2023-03-26T04:01:17;9.10;99.90
18297;DHT22;18066;52.106;5.534;2023-03-26T04:03:47;9.10;99.90
18297;DHT22;18066;52.106;5.534;2023-03-26T04:06:14;9.10;99.90
18297;DHT22;18066;52.106;5.534;2023-03-26T04:08:43;9.20;99.90
18297;DHT22;18066;52.106;5.534;2023-03-26T04:11:10;9.20;99.90
18297;DHT22;18066;52.106;5.534;2023-03-26T04:13:38;9.20;99.90
18297;DHT22;18066;52.106;5.534;2023-03-26T04:16:06;9.20;99.90
18297;DHT22;18066;52.106;5.534;2023-03-26T04:18:33;9.30;99.90
18297;DHT22;18066;52.106;5.534;2023-03-26T04:21:01;9.30;99.90
18297;DHT22;18066;52.106;5.534;2023-03-26T04:23:28;9.40;99.90
18297;DHT22;18066;52.106;5.534;2023-03-26T04:25:56;9.40;99.90
18297;DHT22;18066;52.106;5.534;2023-03-26T04:28:27;9.40;99.90
18297;DHT22;18066;52.106;5.534;2023-03-26T04:30:57;9.50;99.90
18297;DHT22;18066;52.106;5.534;2023-03-26T04:33:26;9.50;99.90
18297;DHT22;18066;52.106;5.534;2023-03-26T04:35:54;9.50;99.90
18297;DHT22;18066;52.106;5.534;2023-03-26T04:38:26;9.60;99.90
18297;DHT22;18066;52.106;5.534;2023-03-26T04:40:53;9.60;99.90
18297;DHT22;18066;52.106;5.534;2023-03-26T04:43:24;9.80;99.90
18297;DHT22;18066;52.106;5.534;2023-03-26T04:45:52;9.60;99.90
18297;DHT22;18066;52.106;5.534;2023-03-26T04:48:20;9.60;99.90
18297;DHT22;18066;52.106;5.534;2023-03-26T04:50:48;9.70;99.90
18297;DHT22;18066;52.106;5.534;2023-03-26T04:53:17;9.60;99.90
18297;DHT22;18066;52.106;5.534;2023-03-26T04:55:48;9.70;99.90
18297;DHT22;18066;52.106;5.534;2023-03-26T04:58:16;9.60;99.90
18297;DHT22;18066;52.106;5.534;2023-03-26T05:00:43;9.70;99.90
18297;DHT22;18066;52.106;5.534;2023-03-26T05:03:12;9.70;99.90
18297;DHT22;18066;52.106;5.534;2023-03-26T05:05:40;9.70;99.90
18297;DHT22;18066;52.106;5.534;2023-03-26T05:08:07;9.70;99.90
18297;DHT22;18066;52.106;5.534;2023-03-26T05:10:34;9.80;99.90
18297;DHT22;18066;52.106;5.534;2023-03-26T05:13:00;9.70;99.90
18297;DHT22;18066;52.106;5.534;2023-03-26T05:15:27;9.60;99.90
18297;DHT22;18066;52.106;5.534;2023-03-26T05:17:54;9.70;99.90
18297;DHT22;18066;52.106;5.534;2023-03-26T05:20:23;9.70;99.90
18297;DHT22;18066;52.106;5.534;2023-03-26T05:22:52;9.70;99.90
18297;DHT22;18066;52.106;5.534;2023-03-26T05:25:19;9.70;99.90
18297;DHT22;18066;52.106;5.534;2023-03-26T05:27:46;9.70;99.90
18297;DHT22;18066;52.106;5.534;2023-03-26T05:30:15;9.70;99.90
18297;DHT22;18066;52.106;5.534;2023-03-26T05:32:42;9.80;99.90
18297;DHT22;18066;52.106;5.534;2023-03-26T05:35:09;9.70;99.90
18297;DHT22;18066;52.106;5.534;2023-03-26T05:37:37;9.70;99.90
18297;DHT22;18066;52.106;5.534;2023-03-26T05:40:07;9.70;99.90
18297;DHT22;18066;52.106;5.534;2023-03-26T05:42:38;9.70;99.90
18297;DHT22;18066;52.106;5.534;2023-03-26T05:45:07;9.70;99.90
18297;DHT22;18066;52.106;5.534;2023-03-26T05:47:34;9.70;99.90
18297;DHT22;18066;52.106;5.534;2023-03-26T05:50:01;9.70;99.90
18297;DHT22;18066;52.106;5.534;2023-03-26T05:52:27;9.80;99.90
18297;DHT22;18066;52.106;5.534;2023-03-26T05:54:55;9.70;99.90
18297;DHT22;18066;52.106;5.534;2023-03-26T05:57:23;9.70;99.90
18297;DHT22;18066;52.106;5.534;2023-03-26T05:59:53;9.70;99.90
18297;DHT22;18066;52.106;5.534;2023-03-26T06:02:20;9.70;99.90
18297;DHT22;18066;52.106;5.534;2023-03-26T06:04:48;9.70;99.90
18297;DHT22;18066;52.106;5.534;2023-03-26T06:07:15;9.70;99.90
18297;DHT22;18066;52.106;5.534;2023-03-26T06:09:42;9.80;99.90
18297;DHT22;18066;52.106;5.534;2023-03-26T06:12:10;9.80;99.90
18297;DHT22;18066;52.106;5.534;2023-03-26T06:14:38;9.80;99.90
18297;DHT22;18066;52.106;5.534;2023-03-26T06:17:07;9.80;99.90
18297;DHT22;18066;52.106;5.534;2023-03-26T06:19:34;9.80;99.90
18297;DHT22;18066;52.106;5.534;2023-03-26T06:22:01;9.80;99.90
18297;DHT22;18066;52.106;5.534;2023-03-26T06:24:28;9.90;99.90
18297;DHT22;18066;52.106;5.534;2023-03-26T06:26:54;9.90;99.90
18297;DHT22;18066;52.106;5.534;2023-03-26T06:29:21;9.90;99.90
18297;DHT22;18066;52.106;5.534;2023-03-26T06:31:49;9.90;99.90
18297;DHT22;18066;52.106;5.534;2023-03-26T06:34:16;10.00;99.90
18297;DHT22;18066;52.106;5.534;2023-03-26T06:36:43;9.90;99.90
18297;DHT22;18066;52.106;5.534;2023-03-26T06:39:10;10.00;99.90
18297;DHT22;18066;52.106;5.534;2023-03-26T06:41:36;10.20;99.90
18297;DHT22;18066;52.106;5.534;2023-03-26T06:44:03;10.10;99.90
18297;DHT22;18066;52.106;5.534;2023-03-26T06:46:30;10.10;99.90
18297;DHT22;18066;52.106;5.534;2023-03-26T06:48:58;10.10;99.90
18297;DHT22;18066;52.106;5.534;2023-03-26T06:51:25;10.00;99.90
18297;DHT22;18066;52.106;5.534;2023-03-26T06:53:52;9.90;99.90
18297;DHT22;18066;52.106;5.534;2023-03-26T06:56:19;9.70;99.90
18297;DHT22;18066;52.106;5.534;2023-03-26T06:58:46;9.70;99.90
18297;DHT22;18066;52.106;5.534;2023-03-26T07:01:12;9.70;99.90
18297;DHT22;18066;52.106;5.534;2023-03-26T07:03:39;9.80;99.90
18297;DHT22;18066;52.106;5.534;2023-03-26T07:06:08;9.90;99.90
18297;DHT22;18066;52.106;5.534;2023-03-26T07:08:35;9.90;99.90
18297;DHT22;18066;52.106;5.534;2023-03-26T07:11:02;10.10;99.90
18297;DHT22;18066;52.106;5.534;2023-03-26T07:13:28;10.00;99.90
18297;DHT22;18066;52.106;5.534;2023-03-26T07:15:55;10.10;99.90
18297;DHT22;18066;52.106;5.534;2023-03-26T07:18:22;10.10;99.90
18297;DHT22;18066;52.106;5.534;2023-03-26T07:20:49;10.10;99.90
18297;DHT22;18066;52.106;5.534;2023-03-26T07:23:18;10.20;99.90
18297;DHT22;18066;52.106;5.534;2023-03-26T07:25:46;10.10;99.90
18297;DHT22;18066;52.106;5.534;2023-03-26T07:28:23;10.00;99.90
18297;DHT22;18066;52.106;5.534;2023-03-26T07:30:59;10.00;99.90
18297;DHT22;18066;52.106;5.534;2023-03-26T07:33:34;9.90;99.90
18297;DHT22;18066;52.106;5.534;2023-03-26T07:36:12;9.90;99.90
18297;DHT22;18066;52.106;5.534;2023-03-26T07:38:49;9.90;99.90
18297;DHT22;18066;52.106;5.534;2023-03-26T07:41:23;9.90;99.90
18297;DHT22;18066;52.106;5.534;2023-03-26T07:44:10;9.90;99.90
18297;DHT22;18066;52.106;5.534;2023-03-26T07:46:41;9.90;99.90
18297;DHT22;18066;52.106;5.534;2023-03-26T07:49:09;9.90;99.90
18297;DHT22;18066;52.106;5.534;2023-03-26T07:51:37;9.90;99.90
18297;DHT22;18066;52.106;5.534;2023-03-26T07:54:09;9.90;99.90
18297;DHT22;18066;52.106;5.534;2023-03-26T07:56:39;9.80;99.90
18297;DHT22;18066;52.106;5.534;2023-03-26T07:59:18;9.80;99.90
18297;DHT22;18066;52.106;5.534;2023-03-26T08:01:58;9.80;99.90
18297;DHT22;18066;52.106;5.534;2023-03-26T08:04:41;9.80;99.90
18297;DHT22;18066;52.106;5.534;2023-03-26T08:07:18;9.90;99.90
18297;DHT22;18066;52.106;5.534;2023-03-26T08:10:00;9.90;99.90
18297;DHT22;18066;52.106;5.534;2023-03-26T08:12:39;10.00;99.90
18297;DHT22;18066;52.106;5.534;2023-03-26T08:15:13;10.10;99.90
18297;DHT22;18066;52.106;5.534;2023-03-26T08:17:45;10.00;99.90
18297;DHT22;18066;52.106;5.534;2023-03-26T08:20:25;10.00;99.90
18297;DHT22;18066;52.106;5.534;2023-03-26T08:23:01;10.00;99.90
18297;DHT22;18066;52.106;5.534;2023-03-26T08:25:33;9.90;99.90
18297;DHT22;18066;52.106;5.534;2023-03-26T08:28:13;9.90;99.90
18297;DHT22;18066;52.106;5.534;2023-03-26T08:30:43;10.00;99.90
18297;DHT22;18066;52.106;5.534;2023-03-26T08:33:13;10.00;99.90
18297;DHT22;18066;52.106;5.534;2023-03-26T08:35:42;10.00;99.90
18297;DHT22;18066;52.106;5.534;2023-03-26T08:38:09;10.00;99.90
18297;DHT22;18066;52.106;5.534;2023-03-26T08:41:03;9.90;99.90
18297;DHT22;18066;52.106;5.534;2023-03-26T08:43:59;10.00;99.90
18297;DHT22;18066;52.106;5.534;2023-03-26T08:46:56;10.00;99.90
18297;DHT22;18066;52.106;5.534;2023-03-26T08:49:50;9.80;99.90
18297;DHT22;18066;52.106;5.534;2023-03-26T08:53:02;9.80;99.90
18297;DHT22;18066;52.106;5.534;2023-03-26T08:55:40;9.80;99.90
18297;DHT22;18066;52.106;5.534;2023-03-26T09:01:42;9.70;99.90
18297;DHT22;18066;52.106;5.534;2023-03-26T09:07:42;9.60;99.90
18297;DHT22;18066;52.106;5.534;2023-03-26T09:19:55;9.50;99.90
18297;DHT22;18066;52.106;5.534;2023-03-26T09:22:49;9.30;99.90
18297;DHT22;18066;52.106;5.534;2023-03-26T09:34:54;9.50;99.90
18297;DHT22;18066;52.106;5.534;2023-03-26T09:37:30;9.50;99.90
18297;DHT22;18066;52.106;5.534;2023-03-26T09:40:10;9.60;99.90
18297;DHT22;18066;52.106;5.534;2023-03-26T09:42:43;9.70;99.90
18297;DHT22;18066;52.106;5.534;2023-03-26T09:45:22;9.90;99.90
18297;DHT22;18066;52.106;5.534;2023-03-26T09:48:34;9.80;99.90
18297;DHT22;18066;52.106;5.534;2023-03-26T09:51:16;9.70;99.90
18297;DHT22;18066;52.106;5.534;2023-03-26T09:54:09;9.70;99.90
18297;DHT22;18066;52.106;5.534;2023-03-26T09:56:48;9.70;99.90
18297;DHT22;18066;52.106;5.534;2023-03-26T10:02:20;9.70;99.90
18297;DHT22;18066;52.106;5.534;2023-03-26T10:05:20;9.60;99.90
18297;DHT22;18066;52.106;5.534;2023-03-26T10:08:14;9.60;99.90
18297;DHT22;18066;52.106;5.534;2023-03-26T10:10:48;9.30;99.90
18297;DHT22;18066;52.106;5.534;2023-03-26T10:13:25;9.30;99.90
18297;DHT22;18066;52.106;5.534;2023-03-26T10:16:03;9.20;99.90
18297;DHT22;18066;52.106;5.534;2023-03-26T10:18:37;9.20;99.90
18297;DHT22;18066;52.106;5.534;2023-03-26T10:21:14;9.30;99.90
18297;DHT22;18066;52.106;5.534;2023-03-26T10:24:05;9.20;99.90
18297;DHT22;18066;52.106;5.534;2023-03-26T10:26:50;9.30;99.90
18297;DHT22;18066;52.106;5.534;2023-03-26T10:32:20;9.70;99.90
18297;DHT22;18066;52.106;5.534;2023-03-26T10:37:46;9.70;99.90
18297;DHT22;18066;52.106;5.534;2023-03-26T10:40:22;9.80;99.90
18297;DHT22;18066;52.106;5.534;2023-03-26T10:43:14;9.90;99.90
18297;DHT22;18066;52.106;5.534;2023-03-26T10:46:03;9.80;99.90
18297;DHT22;18066;52.106;5.534;2023-03-26T10:48:50;9.90;99.90
18297;DHT22;18066;52.106;5.534;2023-03-26T10:51:27;10.00;99.90
18297;DHT22;18066;52.106;5.534;2023-03-26T10:54:02;9.80;99.90
18297;DHT22;18066;52.106;5.534;2023-03-26T10:56:35;9.80;99.90
18297;DHT22;18066;52.106;5.534;2023-03-26T10:59:06;9.90;99.90
18297;DHT22;18066;52.106;5.534;2023-03-26T11:01:39;9.90;99.90
18297;DHT22;18066;52.106;5.534;2023-03-26T11:04:17;9.90;99.90
18297;DHT22;18066;52.106;5.534;2023-03-26T11:06:52;9.90;99.90
18297;DHT22;18066;52.106;5.534;2023-03-26T11:09:28;10.00;99.90
18297;DHT22;18066;52.106;5.534;2023-03-26T11:12:01;9.80;99.90
18297;DHT22;18066;52.106;5.534;2023-03-26T11:14:34;9.80;99.90
18297;DHT22;18066;52.106;5.534;2023-03-26T11:17:12;9.80;99.90
18297;DHT22;18066;52.106;5.534;2023-03-26T11:19:47;9.60;99.90
18297;DHT22;18066;52.106;5.534;2023-03-26T11:22:24;9.50;99.90
18297;DHT22;18066;52.106;5.534;2023-03-26T11:25:07;9.40;99.90
18297;DHT22;18066;52.106;5.534;2023-03-26T11:27:49;9.30;99.90
18297;DHT22;18066;52.106;5.534;2023-03-26T11:30:29;9.40;99.90
18297;DHT22;18066;52.106;5.534;2023-03-26T11:33:01;9.40;99.90
18297;DHT22;18066;52.106;5.534;2023-03-26T11:35:30;9.40;99.90
18297;DHT22;18066;52.106;5.534;2023-03-26T11:38:03;9.40;99.90
18297;DHT22;18066;52.106;5.534;2023-03-26T11:40:33;9.30;99.90
18297;DHT22;18066;52.106;5.534;2023-03-26T11:43:06;9.40;99.90
18297;DHT22;18066;52.106;5.534;2023-03-26T11:45:35;9.40;99.90
18297;DHT22;18066;52.106;5.534;2023-03-26T11:48:07;9.50;99.90
18297;DHT22;18066;52.106;5.534;2023-03-26T11:50:38;9.50;99.90
18297;DHT22;18066;52.106;5.534;2023-03-26T11:53:12;9.40;99.90
18297;DHT22;18066;52.106;5.534;2023-03-26T11:55:43;9.30;99.90
18297;DHT22;18066;52.106;5.534;2023-03-26T11:58:22;9.30;99.90
18297;DHT22;18066;52.106;5.534;2023-03-26T12:00:52;9.40;99.90
18297;DHT22;18066;52.106;5.534;2023-03-26T12:03:20;9.50;99.90
18297;DHT22;18066;52.106;5.534;2023-03-26T12:05:49;9.30;99.90
18297;DHT22;18066;52.106;5.534;2023-03-26T12:08:20;9.60;99.90
18297;DHT22;18066;52.106;5.534;2023-03-26T12:10:58;9.50;99.90
18297;DHT22;18066;52.106;5.534;2023-03-26T12:13:33;9.70;99.90
18297;DHT22;18066;52.106;5.534;2023-03-26T12:16:05;9.60;99.90
18297;DHT22;18066;52.106;5.534;2023-03-26T12:18:33;9.80;99.90
18297;DHT22;18066;52.106;5.534;2023-03-26T12:21:03;9.90;99.90
18297;DHT22;18066;52.106;5.534;2023-03-26T12:23:42;10.00;99.90
18297;DHT22;18066;52.106;5.534;2023-03-26T12:26:16;10.10;99.90
18297;DHT22;18066;52.106;5.534;2023-03-26T12:28:46;10.30;99.90
18297;DHT22;18066;52.106;5.534;2023-03-26T12:31:13;10.30;99.90
18297;DHT22;18066;52.106;5.534;2023-03-26T12:33:43;10.50;99.90
18297;DHT22;18066;52.106;5.534;2023-03-26T12:36:21;10.70;99.90
18297;DHT22;18066;52.106;5.534;2023-03-26T12:38:50;10.70;99.90
18297;DHT22;18066;52.106;5.534;2023-03-26T12:41:19;10.70;99.90
18297;DHT22;18066;52.106;5.534;2023-03-26T12:43:48;10.70;99.90
18297;DHT22;18066;52.106;5.534;2023-03-26T12:46:22;10.90;99.90
18297;DHT22;18066;52.106;5.534;2023-03-26T12:48:50;11.00;99.90
18297;DHT22;18066;52.106;5.534;2023-03-26T12:51:28;11.00;99.90
18297;DHT22;18066;52.106;5.534;2023-03-26T12:54:08;10.90;99.90
18297;DHT22;18066;52.106;5.534;2023-03-26T12:56:44;11.00;99.90
18297;DHT22;18066;52.106;5.534;2023-03-26T12:59:33;10.90;99.90
18297;DHT22;18066;52.106;5.534;2023-03-26T13:05:21;10.80;99.90
18297;DHT22;18066;52.106;5.534;2023-03-26T13:08:04;10.70;99.90
18297;DHT22;18066;52.106;5.534;2023-03-26T13:10:54;10.70;99.90
18297;DHT22;18066;52.106;5.534;2023-03-26T13:13:57;10.70;99.90
18297;DHT22;18066;52.106;5.534;2023-03-26T13:16:33;10.60;99.90
18297;DHT22;18066;52.106;5.534;2023-03-26T13:19:06;10.50;99.90
18297;DHT22;18066;52.106;5.534;2023-03-26T13:21:45;10.40;99.90
18297;DHT22;18066;52.106;5.534;2023-03-26T13:24:23;10.40;99.90
18297;DHT22;18066;52.106;5.534;2023-03-26T13:27:03;10.30;99.90
18297;DHT22;18066;52.106;5.534;2023-03-26T13:29:38;10.30;99.90
18297;DHT22;18066;52.106;5.534;2023-03-26T13:32:14;10.40;99.90
18297;DHT22;18066;52.106;5.534;2023-03-26T13:34:57;10.30;99.90
18297;DHT22;18066;52.106;5.534;2023-03-26T13:37:32;10.40;99.90
18297;DHT22;18066;52.106;5.534;2023-03-26T13:40:14;10.60;99.90
18297;DHT22;18066;52.106;5.534;2023-03-26T13:42:48;10.70;99.90
18297;DHT22;18066;52.106;5.534;2023-03-26T13:45:31;10.50;99.90
18297;DHT22;18066;52.106;5.534;2023-03-26T13:48:05;10.50;99.90
18297;DHT22;18066;52.106;5.534;2023-03-26T13:50:37;10.40;99.90
18297;DHT22;18066;52.106;5.534;2023-03-26T13:53:10;10.40;99.90
18297;DHT22;18066;52.106;5.534;2023-03-26T13:55:40;10.50;99.90
18297;DHT22;18066;52.106;5.534;2023-03-26T13:58:12;10.50;99.90
18297;DHT22;18066;52.106;5.534;2023-03-26T14:00:50;10.50;99.90
18297;DHT22;18066;52.106;5.534;2023-03-26T14:03:24;10.40;99.90
18297;DHT22;18066;52.106;5.534;2023-03-26T14:05:55;10.40;99.90
18297;DHT22;18066;52.106;5.534;2023-03-26T14:08:27;10.40;99.90
18297;DHT22;18066;52.106;5.534;2023-03-26T14:11:02;10.40;99.90
18297;DHT22;18066;52.106;5.534;2023-03-26T14:13:39;10.40;99.90
18297;DHT22;18066;52.106;5.534;2023-03-26T14:16:11;10.40;99.90
18297;DHT22;18066;52.106;5.534;2023-03-26T14:18:46;10.50;99.90
18297;DHT22;18066;52.106;5.534;2023-03-26T14:21:39;10.50;99.90
18297;DHT22;18066;52.106;5.534;2023-03-26T14:24:22;10.40;99.90
18297;DHT22;18066;52.106;5.534;2023-03-26T14:27:08;10.40;99.90
18297;DHT22;18066;52.106;5.534;2023-03-26T14:29:45;10.20;99.90
18297;DHT22;18066;52.106;5.534;2023-03-26T14:32:25;10.20;99.90
18297;DHT22;18066;52.106;5.534;2023-03-26T14:35:03;10.10;99.90
18297;DHT22;18066;52.106;5.534;2023-03-26T14:37:46;10.10;99.90
18297;DHT22;18066;52.106;5.534;2023-03-26T14:40:29;10.00;99.90
18297;DHT22;18066;52.106;5.534;2023-03-26T14:43:30;9.90;99.90
18297;DHT22;18066;52.106;5.534;2023-03-26T14:46:15;9.80;99.90
18297;DHT22;18066;52.106;5.534;2023-03-26T14:49:08;9.70;99.90
18297;DHT22;18066;52.106;5.534;2023-03-26T14:52:01;9.60;99.90
18297;DHT22;18066;52.106;5.534;2023-03-26T14:54:32;9.50;99.90
18297;DHT22;18066;52.106;5.534;2023-03-26T15:00:30;9.50;99.90
18297;DHT22;18066;52.106;5.534;2023-03-26T15:06:28;9.50;99.90
18297;DHT22;18066;52.106;5.534;2023-03-26T15:12:17;9.40;99.90
18297;DHT22;18066;52.106;5.534;2023-03-26T15:18:16;9.30;99.90
18297;DHT22;18066;52.106;5.534;2023-03-26T15:21:17;9.30;99.90
18297;DHT22;18066;52.106;5.534;2023-03-26T15:27:15;9.20;99.90
18297;DHT22;18066;52.106;5.534;2023-03-26T15:30:21;9.20;99.90
18297;DHT22;18066;52.106;5.534;2023-03-26T15:33:24;9.30;99.90
18297;DHT22;18066;52.106;5.534;2023-03-26T15:39:33;9.40;99.90
18297;DHT22;18066;52.106;5.534;2023-03-26T15:42:07;9.30;99.90
18297;DHT22;18066;52.106;5.534;2023-03-26T15:44:51;9.20;99.90
18297;DHT22;18066;52.106;5.534;2023-03-26T15:47:34;9.10;99.90
18297;DHT22;18066;52.106;5.534;2023-03-26T15:50:19;8.90;99.90
18297;DHT22;18066;52.106;5.534;2023-03-26T15:52:52;8.90;99.90
18297;DHT22;18066;52.106;5.534;2023-03-26T15:55:27;9.00;99.90
18297;DHT22;18066;52.106;5.534;2023-03-26T15:58:02;8.90;99.90
18297;DHT22;18066;52.106;5.534;2023-03-26T16:00:34;8.90;99.90
18297;DHT22;18066;52.106;5.534;2023-03-26T16:03:14;8.90;99.90
18297;DHT22;18066;52.106;5.534;2023-03-26T16:05:56;9.10;99.90
18297;DHT22;18066;52.106;5.534;2023-03-26T16:08:33;9.00;99.90
18297;DHT22;18066;52.106;5.534;2023-03-26T16:11:09;8.90;99.90
18297;DHT22;18066;52.106;5.534;2023-03-26T16:13:38;8.90;99.90
18297;DHT22;18066;52.106;5.534;2023-03-26T16:16:24;8.80;99.90
18297;DHT22;18066;52.106;5.534;2023-03-26T16:19:34;8.90;99.90
18297;DHT22;18066;52.106;5.534;2023-03-26T16:22:08;8.90;99.90
18297;DHT22;18066;52.106;5.534;2023-03-26T16:24:42;8.80;99.90
18297;DHT22;18066;52.106;5.534;2023-03-26T16:27:28;8.80;99.90
18297;DHT22;18066;52.106;5.534;2023-03-26T16:30:15;8.70;99.90
18297;DHT22;18066;52.106;5.534;2023-03-26T16:32:53;8.70;99.90
18297;DHT22;18066;52.106;5.534;2023-03-26T16:35:49;8.60;99.90
18297;DHT22;18066;52.106;5.534;2023-03-26T16:38:22;8.60;99.90
18297;DHT22;18066;52.106;5.534;2023-03-26T16:41:02;8.50;99.90
18297;DHT22;18066;52.106;5.534;2023-03-26T16:43:49;8.50;99.90
18297;DHT22;18066;52.106;5.534;2023-03-26T16:46:28;8.40;99.90
18297;DHT22;18066;52.106;5.534;2023-03-26T16:49:01;8.20;99.90
18297;DHT22;18066;52.106;5.534;2023-03-26T16:51:49;8.20;99.90
18297;DHT22;18066;52.106;5.534;2023-03-26T16:54:22;8.10;99.90
18297;DHT22;18066;52.106;5.534;2023-03-26T16:56:55;8.20;99.90
18297;DHT22;18066;52.106;5.534;2023-03-26T16:59:55;8.10;99.90
18297;DHT22;18066;52.106;5.534;2023-03-26T17:02:27;8.10;99.90
18297;DHT22;18066;52.106;5.534;2023-03-26T17:05:06;8.00;99.90
18297;DHT22;18066;52.106;5.534;2023-03-26T17:07:38;8.00;99.90
18297;DHT22;18066;52.106;5.534;2023-03-26T17:10:14;7.90;99.90
18297;DHT22;18066;52.106;5.534;2023-03-26T17:12:53;8.10;99.90
18297;DHT22;18066;52.106;5.534;2023-03-26T17:15:26;8.00;99.90
18297;DHT22;18066;52.106;5.534;2023-03-26T17:18:11;7.90;99.90
18297;DHT22;18066;52.106;5.534;2023-03-26T17:20:45;7.70;99.90
18297;DHT22;18066;52.106;5.534;2023-03-26T17:23:28;7.70;99.90
18297;DHT22;18066;52.106;5.534;2023-03-26T17:26:01;7.60;99.90